Time;durP1;ratioP1;P1;durP2;ratioP2;P2;SDS_P1;SDS_P2;PMS_P1;PMS_P2;Temp;Humidity;BMP_temperature;BMP_pressure;BME280_temperature;BME280_humidity;BME280_pressure;Samples;Min_cycle;Max_cycle;Signal;HPM_P1;HPM_P2
2021/09/01 00:01:52;;;;;;;2.60;2.60;;;;;;;14.77;69.25;102164.84;6264867;28;20395;-74
2021/09/01 00:04:56;;;;;;;4.03;2.53;;;;;;;14.84;69.55;102184.09;6265623;28;20236;-74
2021/09/01 00:08:01;;;;;;;2.60;2.53;;;;;;;14.74;69.95;102181.75;6266156;28;20215;-74
2021/09/01 00:11:06;;;;;;;3.42;3.20;;;;;;;14.69;70.46;102169.75;6264818;28;20210;-74
2021/09/01 00:14:11;;;;;;;2.42;2.30;;;;;;;14.64;71.88;102184.09;6264296;28;20185;-74
2021/09/01 00:17:15;;;;;;;2.65;2.55;;;;;;;14.65;70.87;102169.31;6264167;28;20252;-74
2021/09/01 00:20:20;;;;;;;3.03;2.92;;;;;;;14.68;71.09;102173.53;6265509;28;20251;-74
2021/09/01 00:23:26;;;;;;;3.97;2.90;;;;;;;14.69;70.80;102170.56;6265756;28;20191;-74
2021/09/01 00:26:33;;;;;;;3.92;3.00;;;;;;;14.66;71.94;102165.50;6264728;28;20185;-74
2021/09/01 00:29:37;;;;;;;2.40;2.30;;;;;;;14.60;72.03;102171.00;6264219;28;20211;-74
2021/09/01 00:32:41;;;;;;;2.92;2.83;;;;;;;14.65;71.30;102180.28;6264133;28;20239;-74
2021/09/01 00:35:47;;;;;;;2.42;2.33;;;;;;;14.65;70.72;102171.19;6265252;28;20191;-74
2021/09/01 00:38:51;;;;;;;2.78;2.67;;;;;;;14.54;70.09;102186.41;6264315;28;20260;-74
2021/09/01 00:41:59;;;;;;;2.60;2.50;;;;;;;14.58;70.01;102182.19;6265267;28;20307;-74
2021/09/01 00:45:07;;;;;;;2.72;2.63;;;;;;;14.49;69.83;102175.22;6265529;28;20193;-74
2021/09/01 00:48:14;;;;;;;3.00;2.80;;;;;;;14.52;69.34;102180.28;6263803;28;20185;-74
2021/09/01 00:51:21;;;;;;;2.90;2.80;;;;;;;14.55;68.52;102177.13;6264915;28;20259;-74
2021/09/01 00:54:30;;;;;;;3.08;2.97;;;;;;;14.48;68.46;102190.03;6265177;28;20185;-74
2021/09/01 00:57:38;;;;;;;3.17;2.95;;;;;;;14.49;68.61;102180.72;6265076;28;20191;-74
2021/09/01 01:00:55;;;;;;;3.22;2.80;;;;;;;14.47;68.07;102193.81;6263599;28;20544;-74
2021/09/01 01:04:00;;;;;;;2.83;2.72;;;;;;;14.46;67.70;102194.84;6264041;28;20279;-74
2021/09/01 01:07:08;;;;;;;3.13;3.03;;;;;;;14.46;67.55;102192.09;6263359;28;20381;-74
2021/09/01 01:10:12;;;;;;;2.95;2.75;;;;;;;14.40;67.55;102195.72;6263607;28;20189;-74
2021/09/01 01:13:18;;;;;;;3.00;2.90;;;;;;;14.50;67.49;102198.88;6263840;28;20185;-74
2021/09/01 01:16:23;;;;;;;3.35;3.15;;;;;;;14.43;67.80;102181.56;6246654;28;20201;-74
2021/09/01 01:19:29;;;;;;;3.30;3.10;;;;;;;14.48;67.46;102190.03;6264057;28;20184;-74
2021/09/01 01:22:33;;;;;;;3.05;2.72;;;;;;;14.38;67.96;102190.41;6264449;28;20252;-74
2021/09/01 01:25:39;;;;;;;3.10;2.90;;;;;;;14.50;67.65;102189.78;6263218;28;20201;-74
2021/09/01 01:28:50;;;;;;;3.17;3.03;;;;;;;14.33;68.01;102197.56;6264086;28;20191;-74
2021/09/01 01:31:57;;;;;;;3.35;3.15;;;;;;;14.25;68.18;102195.03;6262840;28;20211;-74
2021/09/01 01:35:02;;;;;;;4.03;3.72;;;;;;;14.30;68.45;102182.34;6262691;28;20216;-74
2021/09/01 01:38:09;;;;;;;2.90;2.70;;;;;;;14.21;67.56;102189.09;6262728;28;20243;-74
2021/09/01 01:41:15;;;;;;;3.35;3.05;;;;;;;14.23;67.39;102194.38;6263608;28;20286;-74
2021/09/01 01:44:20;;;;;;;3.63;3.30;;;;;;;14.18;66.26;102188.66;6262555;28;20499;-74
2021/09/01 01:47:24;;;;;;;3.65;3.38;;;;;;;14.19;66.18;102184.88;6263520;28;20186;-74
2021/09/01 01:50:29;;;;;;;4.03;3.60;;;;;;;14.10;65.69;102177.88;6263845;28;20193;-74
2021/09/01 01:53:33;;;;;;;3.10;2.90;;;;;;;14.04;64.71;102179.56;6263696;28;20199;-74
2021/09/01 01:56:40;;;;;;;3.17;3.00;;;;;;;14.00;64.93;102174.69;6263348;28;20253;-74
2021/09/01 01:59:44;;;;;;;3.20;2.90;;;;;;;14.08;63.65;102199.19;6263517;28;20252;-74
2021/09/01 02:02:48;;;;;;;4.68;3.35;;;;;;;14.07;63.03;102203.00;6263824;28;20268;-74
2021/09/01 02:05:53;;;;;;;4.03;3.03;;;;;;;13.98;62.77;102199.59;6263156;28;20286;-74
2021/09/01 02:08:57;;;;;;;4.40;3.65;;;;;;;14.01;62.48;102198.34;6262077;28;20185;-74
2021/09/01 02:12:06;;;;;;;4.30;3.28;;;;;;;13.96;62.54;102207.19;6262649;28;20499;-74
2021/09/01 02:15:11;;;;;;;4.47;3.20;;;;;;;14.02;61.92;102189.06;6263373;28;20184;-74
2021/09/01 02:18:17;;;;;;;4.28;3.10;;;;;;;13.99;62.54;102179.34;6262883;28;20185;-74
2021/09/01 02:21:21;;;;;;;4.15;3.58;;;;;;;13.90;62.25;102179.72;6262095;28;20240;-74
2021/09/01 02:24:25;;;;;;;3.28;2.97;;;;;;;13.80;61.35;102186.44;6262842;28;20216;-74
2021/09/01 02:27:30;;;;;;;3.50;3.20;;;;;;;13.80;61.03;102200.16;6263167;28;20264;-73
2021/09/01 02:30:35;;;;;;;4.03;2.92;;;;;;;13.71;61.02;102193.16;6262692;28;20188;-74
2021/09/01 02:33:39;;;;;;;3.80;3.40;;;;;;;13.73;61.04;102177.38;6261920;28;20283;-74
2021/09/01 02:36:43;;;;;;;3.72;3.42;;;;;;;13.78;60.35;102188.56;6263053;28;20291;-74
2021/09/01 02:39:49;;;;;;;3.42;3.13;;;;;;;13.74;60.65;102192.75;6270038;28;20188;-73
2021/09/01 02:42:58;;;;;;;3.88;3.47;;;;;;;13.81;60.28;102190.88;6271122;28;20271;-74
2021/09/01 02:46:02;;;;;;;3.80;3.50;;;;;;;13.76;60.19;102179.66;6270854;28;20184;-73
2021/09/01 02:49:06;;;;;;;3.80;3.38;;;;;;;13.73;60.95;102174.63;6269869;28;20185;-74
2021/09/01 02:52:11;;;;;;;3.40;3.13;;;;;;;13.78;60.58;102171.25;6270976;28;20252;-73
2021/09/01 02:55:15;;;;;;;6.80;4.55;;;;;;;13.70;60.73;102188.75;6270656;28;20216;-73
2021/09/01 02:58:20;;;;;;;5.05;3.70;;;;;;;13.64;61.20;102186.81;6269636;28;20386;-73
2021/09/01 03:01:25;;;;;;;4.93;3.83;;;;;;;13.60;61.41;102185.53;6270196;28;20231;-73
2021/09/01 03:04:29;;;;;;;4.07;3.78;;;;;;;13.68;61.58;102170.78;6269986;28;20232;-73
2021/09/01 03:07:33;;;;;;;6.78;3.80;;;;;;;13.55;62.04;102176.22;6270865;28;20185;-74
2021/09/01 03:10:37;;;;;;;4.18;3.78;;;;;;;13.57;61.50;102180.44;6269394;28;20546;-72
2021/09/01 03:13:43;;;;;;;3.95;3.50;;;;;;;13.54;61.85;102180.00;6269685;28;20273;-74
2021/09/01 03:16:48;;;;;;;3.78;3.47;;;;;;;13.55;62.03;102182.56;6269707;28;20192;-73
2021/09/01 03:19:52;;;;;;;7.30;3.63;;;;;;;13.51;62.76;102192.22;6269395;28;20376;-73
2021/09/01 03:22:56;;;;;;;4.10;3.17;;;;;;;13.52;61.62;102204.03;6270567;28;20240;-73
2021/09/01 03:26:20;;;;;;;3.83;3.30;;;;;;;13.43;61.88;102189.66;6269442;28;20251;-73
2021/09/01 03:29:29;;;;;;;3.97;3.50;;;;;;;13.55;60.81;102190.78;6270433;28;20231;-73
2021/09/01 03:32:33;;;;;;;3.50;3.30;;;;;;;13.54;61.68;102190.97;6269182;28;20386;-73
2021/09/01 03:35:38;;;;;;;3.97;3.67;;;;;;;13.50;63.03;102174.09;6270588;28;20185;-73
2021/09/01 03:38:42;;;;;;;4.40;4.10;;;;;;;13.51;62.32;102181.25;6270132;28;20192;-74
2021/09/01 03:41:46;;;;;;;5.40;3.35;;;;;;;13.53;62.20;102176.41;6269163;28;20523;-74
2021/09/01 03:44:52;;;;;;;4.55;3.63;;;;;;;13.45;61.65;102171.13;6270064;28;20196;-74
2021/09/01 03:47:56;;;;;;;4.05;3.67;;;;;;;13.46;61.78;102178.28;6270012;28;20185;-74
2021/09/01 03:51:01;;;;;;;4.15;3.85;;;;;;;13.51;61.97;102175.78;6266034;28;20227;-74
2021/09/01 03:54:05;;;;;;;5.97;3.58;;;;;;;13.50;62.28;102178.72;6266449;28;20185;-73
2021/09/01 03:57:10;;;;;;;6.57;3.90;;;;;;;13.44;61.75;102169.41;6266118;28;20287;-73
2021/09/01 04:00:16;;;;;;;3.80;3.60;;;;;;;13.32;61.97;102175.69;6265925;28;20220;-74
2021/09/01 04:03:20;;;;;;;5.15;4.00;;;;;;;13.33;62.45;102175.47;6265956;28;20224;-74
2021/09/01 04:06:24;;;;;;;3.90;3.60;;;;;;;13.23;62.40;102177.72;6264804;28;20491;-73
2021/09/01 04:09:29;;;;;;;5.97;3.70;;;;;;;13.30;61.95;102167.66;6264751;28;20192;-73
2021/09/01 04:12:37;;;;;;;8.65;4.13;;;;;;;13.26;61.99;102171.84;6264701;28;20476;-73
2021/09/01 04:15:43;;;;;;;6.07;3.90;;;;;;;13.28;61.25;102174.38;6265988;28;20185;-74
2021/09/01 04:18:48;;;;;;;7.45;4.43;;;;;;;13.20;61.50;102174.56;6265505;28;20185;-73
2021/09/01 04:21:52;;;;;;;8.82;3.67;;;;;;;13.22;61.76;102181.53;6264371;28;20288;-74
2021/09/01 04:24:56;;;;;;;4.15;3.85;;;;;;;13.22;62.15;102181.53;6265715;28;20259;-74
2021/09/01 04:28:00;;;;;;;4.30;3.75;;;;;;;13.25;62.59;102181.13;6265278;28;20184;-74
2021/09/01 04:31:06;;;;;;;4.30;4.03;;;;;;;13.22;61.71;102180.69;6265513;28;20185;-74
2021/09/01 04:34:10;;;;;;;4.65;4.18;;;;;;;13.19;62.34;102179.19;6264596;28;20200;-73
2021/09/01 04:37:14;;;;;;;3.67;3.47;;;;;;;13.22;61.74;102178.81;6264245;28;20442;-73
2021/09/01 04:40:18;;;;;;;4.65;4.03;;;;;;;13.29;61.23;102168.72;6279447;28;20207;-73
2021/09/01 04:43:23;;;;;;;4.18;3.88;;;;;;;13.33;60.97;102172.72;6265321;28;20275;-74
2021/09/01 04:46:28;;;;;;;4.90;4.00;;;;;;;13.23;62.03;102161.28;6264947;28;20208;-73
2021/09/01 04:49:32;;;;;;;4.22;3.95;;;;;;;13.25;60.78;102159.19;6263849;28;20208;-74
2021/09/01 04:52:37;;;;;;;3.95;3.60;;;;;;;13.22;60.58;102167.84;6264631;28;20196;-73
2021/09/01 04:55:41;;;;;;;5.65;3.95;;;;;;;13.29;61.67;102165.97;6264997;28;20185;-74
2021/09/01 04:58:45;;;;;;;7.43;4.13;;;;;;;13.27;61.28;102170.81;6263519;28;20216;-74
2021/09/01 05:01:50;;;;;;;4.38;3.97;;;;;;;13.23;60.39;102172.25;6264161;28;20268;-73
2021/09/01 05:04:56;;;;;;;4.63;4.00;;;;;;;13.21;60.73;102152.44;6264201;28;20237;-74
2021/09/01 05:08:01;;;;;;;6.68;3.95;;;;;;;13.19;61.25;102154.53;6264359;28;20255;-73
2021/09/01 05:11:06;;;;;;;4.43;4.00;;;;;;;13.25;61.43;102158.38;6263331;28;20185;-73
2021/09/01 05:14:11;;;;;;;10.05;4.00;;;;;;;13.25;61.39;102159.19;6264536;28;20195;-74
2021/09/01 05:17:17;;;;;;;4.78;3.67;;;;;;;13.16;61.39;102163.16;6264388;28;20185;-74
2021/09/01 05:20:21;;;;;;;5.45;4.32;;;;;;;13.28;62.15;102160.66;6263127;28;20231;-73
2021/09/01 05:23:31;;;;;;;9.52;4.40;;;;;;;13.21;62.44;102165.28;6264365;28;20213;-74
2021/09/01 05:26:35;;;;;;;8.18;4.30;;;;;;;13.32;62.15;102172.94;6264391;28;20256;-74
2021/09/01 05:29:43;;;;;;;7.07;4.78;;;;;;;13.40;61.95;102172.78;6264012;28;20196;-74
2021/09/01 05:32:54;;;;;;;7.75;4.25;;;;;;;13.44;61.27;102179.53;6264235;28;20257;-74
2021/09/01 05:35:58;;;;;;;4.18;3.83;;;;;;;13.34;61.10;102162.63;6263291;28;20185;-73
2021/09/01 05:39:03;;;;;;;4.93;4.07;;;;;;;13.25;62.06;102164.66;6262799;28;20481;-73
2021/09/01 05:42:11;;;;;;;6.28;4.20;;;;;;;13.33;61.51;102166.44;6263906;28;20193;-73
2021/09/01 05:45:15;;;;;;;7.30;4.38;;;;;;;13.41;61.26;102175.31;6262756;28;20185;-73
2021/09/01 05:48:24;;;;;;;9.65;3.92;;;;;;;13.30;61.58;102177.78;6263284;28;20192;-73
2021/09/01 05:51:29;;;;;;;3.78;3.47;;;;;;;13.26;61.55;102180.06;6262153;28;20389;-74
2021/09/01 05:54:34;;;;;;;7.75;4.10;;;;;;;13.34;61.48;102174.44;6263381;28;20227;-74
2021/09/01 05:57:40;;;;;;;6.10;4.43;;;;;;;13.52;60.81;102166.50;6262016;28;20239;-73
2021/09/01 06:00:45;;;;;;;3.60;3.38;;;;;;;13.52;60.65;102177.47;6261801;28;20445;-73
2021/09/01 06:03:51;;;;;;;4.60;4.20;;;;;;;13.72;60.86;102167.44;6261954;28;20244;-72
2021/09/01 06:06:58;;;;;;;4.95;3.90;;;;;;;13.69;60.59;102172.47;6262657;28;20231;-73
2021/09/01 06:10:04;;;;;;;7.07;4.20;;;;;;;13.77;60.05;102175.88;6262979;28;20185;-74
2021/09/01 06:13:11;;;;;;;5.07;3.95;;;;;;;13.76;60.28;102176.94;6261146;28;20480;-73
2021/09/01 06:16:19;;;;;;;4.40;3.90;;;;;;;13.72;59.97;102172.91;6261554;28;20185;-73
2021/09/01 06:19:25;;;;;;;5.78;4.00;;;;;;;13.86;60.04;102181.19;6261574;28;20403;-74
2021/09/01 06:22:30;;;;;;;7.63;3.83;;;;;;;13.74;60.54;102170.81;6262651;28;20192;-73
2021/09/01 06:25:34;;;;;;;4.28;3.80;;;;;;;13.72;59.90;102178.41;6262477;28;20248;-73
2021/09/01 06:28:42;;;;;;;8.43;4.35;;;;;;;13.86;60.34;102162.00;6261442;28;20453;-73
2021/09/01 06:31:46;;;;;;;10.00;4.03;;;;;;;14.03;60.62;102171.53;6261438;28;20556;-74
2021/09/01 06:34:52;;;;;;;11.90;3.85;;;;;;;14.13;59.90;102163.72;6263146;28;20259;-74
2021/09/01 06:37:56;;;;;;;5.65;3.50;;;;;;;14.08;60.71;102166.25;6262458;28;20184;-75
2021/09/01 06:41:00;;;;;;;5.75;3.53;;;;;;;14.13;59.19;102160.97;6262383;28;20295;-74
2021/09/01 06:44:05;;;;;;;7.90;4.18;;;;;;;14.18;58.86;102162.06;6262484;28;20249;-74
2021/09/01 06:47:11;;;;;;;10.40;3.83;;;;;;;14.37;57.97;102160.44;6261311;28;20429;-75
2021/09/01 06:50:18;;;;;;;10.63;4.18;;;;;;;14.57;58.34;102172.25;6262421;28;20191;-74
2021/09/01 06:53:23;;;;;;;6.97;3.95;;;;;;;14.73;57.73;102162.75;6263465;28;20193;-73
2021/09/01 06:56:29;;;;;;;7.03;4.05;;;;;;;14.61;58.12;102148.78;6262686;28;20185;-75
2021/09/01 06:59:33;;;;;;;5.90;4.00;;;;;;;14.62;58.25;102153.25;6261400;28;20259;-73
2021/09/01 07:02:38;;;;;;;4.88;3.65;;;;;;;14.72;58.02;102161.91;6262011;28;20205;-73
2021/09/01 07:05:44;;;;;;;9.27;3.65;;;;;;;14.82;58.04;102159.56;6259011;28;20591;-73
2021/09/01 07:08:48;;;;;;;6.97;3.72;;;;;;;14.66;56.34;102148.19;6261005;28;20491;-73
2021/09/01 07:11:55;;;;;;;11.90;3.40;;;;;;;14.71;56.67;102141.00;6262352;28;20189;-73
2021/09/01 07:15:02;;;;;;;4.75;3.60;;;;;;;14.84;56.83;102138.22;6260905;28;20248;-73
2021/09/01 07:18:10;;;;;;;4.40;4.00;;;;;;;14.84;56.95;102151.94;6262280;28;20196;-72
2021/09/01 07:21:16;;;;;;;3.67;3.42;;;;;;;14.88;55.79;102161.47;6260982;28;20189;-72
2021/09/01 07:24:20;;;;;;;6.30;4.05;;;;;;;14.73;56.61;102158.09;6263291;28;20299;-74
2021/09/01 07:27:25;;;;;;;5.53;3.20;;;;;;;14.80;56.72;102161.69;6266747;28;20207;-74
2021/09/01 07:30:29;;;;;;;5.95;3.45;;;;;;;14.91;56.28;102158.31;6266637;28;20278;-74
2021/09/01 07:33:34;;;;;;;7.47;3.45;;;;;;;14.93;57.51;102152.56;6265504;28;20247;-74
2021/09/01 07:36:42;;;;;;;5.68;3.33;;;;;;;14.66;56.70;102149.00;6266518;28;20204;-73
2021/09/01 07:39:46;;;;;;;6.85;3.50;;;;;;;14.71;56.26;102146.50;6265203;28;20185;-73
2021/09/01 07:42:51;;;;;;;11.20;3.35;;;;;;;14.76;56.36;102154.09;6265725;28;20263;-73
2021/09/01 07:45:55;;;;;;;5.70;3.10;;;;;;;14.58;56.70;102146.50;6266202;28;20208;-73
2021/09/01 07:49:00;;;;;;;3.85;2.75;;;;;;;14.64;57.54;102155.75;6266153;28;20185;-73
2021/09/01 07:52:07;;;;;;;6.95;3.03;;;;;;;14.83;56.54;102142.03;6266198;28;20231;-73
2021/09/01 07:55:11;;;;;;;7.00;2.95;;;;;;;14.94;56.90;102151.53;6265128;28;20189;-73
2021/09/01 07:58:18;;;;;;;9.25;3.35;;;;;;;14.89;56.30;102165.06;6264876;28;20534;-73
2021/09/01 08:01:22;;;;;;;4.18;3.80;;;;;;;14.84;56.39;102168.44;6264719;28;20428;-73
2021/09/01 08:04:27;;;;;;;3.95;2.88;;;;;;;14.93;55.99;102167.16;6264955;28;20236;-73
2021/09/01 08:07:32;;;;;;;3.97;3.05;;;;;;;14.98;56.64;102161.88;6265662;28;20511;-73
2021/09/01 08:10:36;;;;;;;8.48;2.90;;;;;;;14.97;56.51;102173.91;6264604;28;20192;-73
2021/09/01 08:13:42;;;;;;;4.00;2.75;;;;;;;14.95;55.90;102159.53;6264903;28;20185;-73
2021/09/01 08:16:46;;;;;;;6.30;3.30;;;;;;;14.96;56.61;102163.16;6265894;28;20223;-73
2021/09/01 08:19:50;;;;;;;4.10;3.05;;;;;;;14.99;56.27;102163.56;6264748;28;20208;-73
2021/09/01 08:22:57;;;;;;;6.22;3.28;;;;;;;15.04;56.49;102166.53;6264354;28;20443;-73
2021/09/01 08:26:01;;;;;;;7.55;2.83;;;;;;;15.08;57.21;102147.69;6264099;28;20438;-73
2021/09/01 08:29:06;;;;;;;9.07;3.00;;;;;;;15.02;56.16;102154.88;6265393;28;20224;-73
2021/09/01 08:32:12;;;;;;;4.93;3.53;;;;;;;15.11;56.78;102151.91;6264659;28;20195;-73
2021/09/01 08:35:17;;;;;;;7.50;3.10;;;;;;;15.17;57.36;102162.06;6264921;28;20260;-73
2021/09/01 08:38:22;;;;;;;5.07;2.92;;;;;;;15.11;55.93;102157.41;6265152;28;20229;-73
2021/09/01 08:41:28;;;;;;;5.53;3.00;;;;;;;15.28;58.11;102153.16;6263929;28;20185;-73
2021/09/01 08:44:32;;;;;;;7.13;2.80;;;;;;;15.31;57.07;102148.03;6264685;28;20243;-73
2021/09/01 08:47:38;;;;;;;4.68;2.42;;;;;;;15.20;54.68;102156.13;6264986;28;20243;-73
2021/09/01 08:50:43;;;;;;;4.47;3.30;;;;;;;15.35;53.80;102142.97;6264560;28;20288;-73
2021/09/01 08:53:49;;;;;;;7.20;3.00;;;;;;;15.55;54.82;102143.75;6264625;28;20262;-73
2021/09/01 08:56:54;;;;;;;2.88;2.67;;;;;;;15.57;54.18;102141.63;6264570;28;20224;-73
2021/09/01 08:59:58;;;;;;;2.92;2.30;;;;;;;15.55;53.37;102143.75;6263200;28;20208;-73
2021/09/01 09:03:02;;;;;;;7.28;2.10;;;;;;;15.52;52.59;102138.69;6264416;28;20274;-73
2021/09/01 09:06:06;;;;;;;2.60;2.40;;;;;;;15.46;52.05;102134.03;6263459;28;20268;-73
2021/09/01 09:09:38;;;;;;;2.65;2.42;;;;;;;15.66;52.45;102140.34;6263665;28;20206;-73
2021/09/01 09:13:05;;;;;;;4.00;2.20;;;;;;;15.60;51.32;102141.19;6263065;28;20197;-72
2021/09/01 09:16:27;;;;;;;4.85;2.38;;;;;;;15.47;52.48;102146.75;6263307;28;20208;-73
2021/09/01 09:19:52;;;;;;;7.80;2.42;;;;;;;15.40;51.38;102129.41;6262833;28;20380;-72
2021/09/01 09:23:14;;;;;;;2.28;2.08;;;;;;;15.50;51.69;102136.16;6262945;28;20182;-73
2021/09/01 09:26:41;;;;;;;3.55;2.30;;;;;;;15.61;51.83;102132.72;6262659;28;20212;-73
2021/09/01 09:30:25;;;;;;;4.82;2.53;;;;;;;15.60;51.16;102125.53;6262939;28;20209;-74
2021/09/01 09:33:44;;;;;;;6.65;2.30;;;;;;;15.67;51.70;102125.50;6261112;28;20200;-73
2021/09/01 09:37:15;;;;;;;3.90;2.35;;;;;;;15.76;50.88;102134.34;6262970;28;20211;-73
2021/09/01 09:40:36;;;;;;;2.20;2.00;;;;;;;15.70;51.10;102133.31;6222859;28;20259;-71
2021/09/01 09:44:15;;;;;;;4.20;2.08;;;;;;;15.59;50.96;102128.50;6211850;28;20524;-72
2021/09/01 09:47:19;;;;;;;5.07;2.40;;;;;;;15.69;50.99;102109.59;6210750;28;20213;-72
2021/09/01 09:50:24;;;;;;;4.88;2.10;;;;;;;15.82;53.46;102100.44;6260829;28;20201;-73
2021/09/01 09:53:33;;;;;;;6.45;2.05;;;;;;;15.88;51.21;102105.91;6263103;28;20196;-73
2021/09/01 09:56:38;;;;;;;3.33;2.05;;;;;;;15.91;50.96;102121.13;6263523;28;20189;-73
2021/09/01 09:59:45;;;;;;;4.53;2.00;;;;;;;15.86;50.32;102119.03;6263165;28;20263;-73
2021/09/01 10:02:51;;;;;;;3.03;2.38;;;;;;;15.81;51.01;102110.63;6262889;28;20483;-73
2021/09/01 10:05:59;;;;;;;3.50;1.92;;;;;;;15.88;50.32;102111.41;6261956;28;20431;-72
2021/09/01 10:09:05;;;;;;;2.25;2.05;;;;;;;16.03;51.59;102105.59;6263245;28;20232;-73
2021/09/01 10:12:10;;;;;;;4.10;2.30;;;;;;;16.03;50.79;102114.69;6263195;28;20185;-74
2021/09/01 10:15:22;;;;;;;2.47;2.28;;;;;;;16.04;50.37;102099.88;6262928;28;20196;-73
2021/09/01 10:18:29;;;;;;;7.57;2.53;;;;;;;16.11;51.67;102127.34;6262981;28;20185;-73
2021/09/01 10:21:35;;;;;;;3.50;2.22;;;;;;;16.17;50.41;102116.31;6263049;28;20216;-73
2021/09/01 10:24:43;;;;;;;4.45;2.33;;;;;;;16.24;50.31;102117.09;6262616;28;20197;-73
2021/09/01 10:27:47;;;;;;;2.47;2.38;;;;;;;16.23;49.76;102106.28;6261763;28;20481;-74
2021/09/01 10:31:20;;;;;;;3.75;2.20;;;;;;;16.04;49.01;102110.88;6262905;28;20231;-72
2021/09/01 10:34:27;;;;;;;3.03;2.58;;;;;;;16.16;48.80;102108.25;6262410;28;20215;-72
2021/09/01 10:37:39;;;;;;;2.10;2.00;;;;;;;16.13;49.01;102115.03;6261805;28;20267;-72
2021/09/01 10:41:04;;;;;;;4.15;2.20;;;;;;;16.31;49.05;102108.75;6262318;28;20300;-73
2021/09/01 10:44:21;;;;;;;3.88;2.47;;;;;;;16.46;50.83;102097.44;6262034;28;20185;-73
2021/09/01 10:47:28;;;;;;;2.50;2.13;;;;;;;16.44;48.50;102105.03;6261570;28;20220;-73
2021/09/01 10:50:35;;;;;;;2.20;2.10;;;;;;;16.53;48.47;102109.25;6262157;28;20223;-73
2021/09/01 10:53:39;;;;;;;3.90;2.05;;;;;;;16.68;48.50;102098.72;6262549;28;20220;-73
2021/09/01 10:56:51;;;;;;;6.35;2.05;;;;;;;16.84;48.34;102089.88;6261380;28;20255;-73
2021/09/01 10:59:59;;;;;;;2.53;2.30;;;;;;;16.93;50.47;102099.50;6264927;28;20185;-73
2021/09/01 11:03:06;;;;;;;3.05;2.20;;;;;;;17.00;48.09;102103.03;6265957;28;20500;-72
2021/09/01 11:06:20;;;;;;;2.67;2.15;;;;;;;17.00;48.18;102097.53;6266907;28;20236;-73
2021/09/01 11:09:27;;;;;;;2.38;1.80;;;;;;;16.98;47.87;102091.41;6267267;28;20255;-73
2021/09/01 11:12:33;;;;;;;2.30;2.20;;;;;;;17.05;49.38;102092.16;6266482;28;20379;-73
2021/09/01 11:15:45;;;;;;;3.25;2.70;;;;;;;17.19;50.56;102088.19;6266164;28;20388;-72
2021/09/01 11:19:02;;;;;;;2.70;2.50;;;;;;;17.29;51.75;102082.97;6266324;28;20375;-73
2021/09/01 11:22:16;;;;;;;4.50;2.72;;;;;;;17.33;51.86;102095.22;6266824;28;20207;-73
2021/09/01 11:25:20;;;;;;;4.28;2.80;;;;;;;17.16;51.56;102088.66;6265693;28;20184;-72
2021/09/01 11:28:24;;;;;;;4.65;2.95;;;;;;;17.43;50.70;102084.50;6266552;28;20207;-72
2021/09/01 11:31:28;;;;;;;2.78;2.67;;;;;;;17.32;49.34;102088.03;6266539;28;20303;-73
2021/09/01 11:34:34;;;;;;;3.45;2.65;;;;;;;17.33;51.91;102072.31;6265362;28;20437;-72
2021/09/01 11:37:38;;;;;;;6.82;2.33;;;;;;;17.47;51.78;102074.66;6266295;28;20212;-73
2021/09/01 11:40:49;;;;;;;2.78;2.50;;;;;;;17.47;50.86;102077.44;6265391;28;20256;-73
2021/09/01 11:43:58;;;;;;;2.70;2.38;;;;;;;17.31;50.60;102088.25;6265538;28;20207;-73
2021/09/01 11:47:02;;;;;;;3.08;2.70;;;;;;;17.37;51.04;102082.66;6266482;28;20279;-73
2021/09/01 11:50:11;;;;;;;3.22;3.03;;;;;;;17.39;51.49;102083.25;6264947;28;20192;-73
2021/09/01 11:53:16;;;;;;;2.72;2.53;;;;;;;17.49;52.57;102094.59;6266572;28;20185;-74
2021/09/01 11:56:20;;;;;;;2.83;2.63;;;;;;;17.03;51.30;102099.81;6264858;28;20212;-73
2021/09/01 11:59:26;;;;;;;2.60;2.50;;;;;;;17.07;50.72;102101.06;6264863;28;20239;-73
2021/09/01 12:02:32;;;;;;;2.85;2.75;;;;;;;17.07;50.94;102106.59;6266121;28;20207;-73
2021/09/01 12:05:40;;;;;;;4.47;2.67;;;;;;;17.24;52.09;102102.13;6265256;28;20235;-73
2021/09/01 12:08:46;;;;;;;3.13;2.83;;;;;;;17.20;52.53;102089.03;6264571;28;20588;-72
2021/09/01 12:11:52;;;;;;;3.88;2.80;;;;;;;17.19;54.09;102087.34;6264223;28;20372;-72
2021/09/01 12:15:06;;;;;;;3.17;2.92;;;;;;;17.17;53.79;102095.00;6264596;28;20474;-72
2021/09/01 12:18:15;;;;;;;3.08;2.85;;;;;;;17.31;53.65;102096.53;6264899;28;20189;-72
2021/09/01 12:21:22;;;;;;;3.53;2.97;;;;;;;17.08;53.94;102096.38;6265837;28;20185;-72
2021/09/01 12:24:33;;;;;;;3.33;2.90;;;;;;;17.03;55.37;102083.28;6264563;28;20431;-72
2021/09/01 12:27:39;;;;;;;8.18;2.85;;;;;;;17.01;54.94;102088.19;6265557;28;20300;-72
2021/09/01 12:30:48;;;;;;;4.05;2.60;;;;;;;16.98;54.46;102085.88;6265018;28;20192;-73
2021/09/01 12:33:52;;;;;;;3.47;2.30;;;;;;;17.04;54.76;102078.63;6265350;28;20196;-73
2021/09/01 12:37:23;;;;;;;4.18;2.53;;;;;;;16.90;54.13;102075.16;6263910;28;20393;-73
2021/09/01 12:40:30;;;;;;;2.78;2.67;;;;;;;17.00;56.50;102080.97;6263185;28;20259;-73
2021/09/01 12:43:40;;;;;;;5.35;2.60;;;;;;;16.99;55.33;102076.56;6265262;28;20203;-73
2021/09/01 12:46:44;;;;;;;3.30;2.88;;;;;;;17.15;55.62;102075.94;6265080;28;20208;-73
2021/09/01 12:49:52;;;;;;;3.15;2.63;;;;;;;17.26;55.86;102061.34;6264977;28;20256;-73
2021/09/01 12:52:58;;;;;;;4.20;2.70;;;;;;;17.35;56.48;102057.22;6265064;28;20188;-73
2021/09/01 12:56:02;;;;;;;3.30;3.10;;;;;;;17.29;56.35;102049.88;6264929;28;20185;-73
2021/09/01 12:59:09;;;;;;;3.13;2.97;;;;;;;17.29;56.62;102055.38;6264473;28;20188;-73
2021/09/01 13:02:14;;;;;;;4.38;2.67;;;;;;;17.15;56.06;102053.88;6263323;28;20555;-73
2021/09/01 13:05:20;;;;;;;2.67;2.58;;;;;;;17.05;54.63;102039.78;6264094;28;20236;-73
2021/09/01 13:08:26;;;;;;;3.33;3.22;;;;;;;17.00;55.94;102039.63;6264448;28;20243;-73
2021/09/01 13:11:31;;;;;;;4.32;3.03;;;;;;;17.04;56.58;102040.84;6263179;28;20378;-73
2021/09/01 13:14:37;;;;;;;2.90;2.65;;;;;;;17.11;56.52;102035.25;6264416;28;20185;-73
2021/09/01 13:17:43;;;;;;;3.28;3.08;;;;;;;17.18;57.44;102031.34;6264173;28;20201;-73
2021/09/01 13:20:53;;;;;;;3.22;3.03;;;;;;;17.19;57.49;102030.28;6264419;28;20251;-73
2021/09/01 13:23:58;;;;;;;3.95;2.90;;;;;;;17.17;57.24;102035.19;6264008;28;20231;-73
2021/09/01 13:27:05;;;;;;;3.28;3.10;;;;;;;17.22;59.31;102026.22;6262740;28;20546;-73
2021/09/01 13:30:12;;;;;;;3.08;2.90;;;;;;;17.34;57.04;102011.41;6263539;28;20185;-73
2021/09/01 13:33:36;;;;;;;3.05;2.85;;;;;;;17.29;58.50;102033.31;6263115;28;20185;-73
2021/09/01 13:36:43;;;;;;;3.58;3.38;;;;;;;17.28;61.54;102026.09;6262673;28;20252;-73
2021/09/01 13:39:48;;;;;;;3.28;3.08;;;;;;;17.09;58.49;102027.22;6263886;28;20185;-73
2021/09/01 13:42:53;;;;;;;3.30;3.10;;;;;;;16.84;58.76;102030.09;6263792;28;20200;-73
2021/09/01 13:45:57;;;;;;;3.08;2.83;;;;;;;17.05;59.57;102020.47;6262592;28;20192;-73
2021/09/01 13:49:01;;;;;;;4.97;2.72;;;;;;;16.87;59.94;102017.75;6262945;28;20213;-73
2021/09/01 13:52:07;;;;;;;3.20;3.10;;;;;;;16.69;60.51;102009.47;6263630;28;20184;-73
2021/09/01 13:55:13;;;;;;;3.20;2.90;;;;;;;16.89;59.81;101993.53;6262445;28;20192;-73
2021/09/01 13:58:20;;;;;;;3.20;3.00;;;;;;;17.03;62.13;102000.56;6261990;28;20251;-73
2021/09/01 14:01:24;;;;;;;2.88;2.70;;;;;;;16.96;59.36;101987.94;6262174;28;20380;-72
2021/09/01 14:04:29;;;;;;;2.90;2.72;;;;;;;17.11;60.64;101980.94;6261852;28;20435;-73
2021/09/01 14:07:33;;;;;;;3.55;2.97;;;;;;;17.21;62.37;101969.34;6261879;28;20213;-73
2021/09/01 14:10:41;;;;;;;3.28;3.08;;;;;;;17.29;62.00;101974.53;6261798;28;20189;-72
2021/09/01 14:13:45;;;;;;;2.92;2.65;;;;;;;17.38;61.46;101976.72;6263167;28;20185;-72
2021/09/01 14:16:51;;;;;;;3.17;3.08;;;;;;;17.42;62.58;101961.41;6262922;28;20184;-72
2021/09/01 14:19:55;;;;;;;3.63;3.00;;;;;;;17.48;61.34;101966.00;6261662;28;20513;-72
2021/09/01 14:22:59;;;;;;;3.20;2.92;;;;;;;17.55;59.45;101951.28;6262742;28;20191;-73
2021/09/01 14:26:04;;;;;;;2.67;2.35;;;;;;;17.63;60.23;101950.94;6261411;28;20507;-72
2021/09/01 14:29:08;;;;;;;2.78;2.60;;;;;;;17.52;58.11;101947.91;6262243;28;20217;-73